LFRD/DNR METAR and TAF weather

Enter ICAO airport designator
Station Type Date Time Source
LFRD METAR 2021/07/30 07:30 UTC NOAA

LFRD 300730Z AUTO 24017G27KT 210V270 9999 SCT022 16/12 Q1009 TEMPO SHRA BKN030TCU


Station Type Date Time Source
LFRD Decoded METAR 2021/07/30 07:30 UTC NOAA

Dinard, France (LFRD) 48-35N 002-04W 60M
Jul 30, 2021 - 03:30 AM EDT / 2021.07.30 0730 UTC
Wind: from the WSW (240 degrees) at 20 MPH (17 KT) gusting to 31 MPH (27 KT) (direction variable):0
Visibility: greater than 7 mile(s):0
Sky conditions: partly cloudy
Weather: Towering cumulus clouds observed
Temperature: 60 F (16 C)
Dew Point: 53 F (12 C)
Relative Humidity: 77%
Pressure (altimeter): 29.80 in. Hg (1009 hPa)
ob: LFRD 300730Z AUTO 24017G27KT 210V270 9999 SCT022 16/12 Q1009 TEMPO SHRA BKN030TCU
cycle: 7

Station Type Date Time Source
LFRD TAF 2021/07/30 06:21 UTC NOAA

TAF LFRD 300500Z 3006/3106 23012KT 9999 SCT030
BECMG 3006/3008 24016G30KT PROB30
TEMPO 3009/3018 SHRA BKN030TCU
BECMG 3013/3016 30015G25KT
BECMG 3017/3020 28010KT PROB30
TEMPO 3022/3106 -SHRA BKN015

Example: see airport list